sensor_id;sensor_type;location;lat;lon;timestamp;P1;durP1;ratioP1;P2;durP2;ratioP2
13868;SDS011;7004;48.206;16.402;2022-07-31T00:01:57;6.23;;;5.63;;
13868;SDS011;7004;48.206;16.402;2022-07-31T00:04:23;6.47;;;5.70;;
13868;SDS011;7004;48.206;16.402;2022-07-31T00:06:50;6.03;;;5.43;;
13868;SDS011;7004;48.206;16.402;2022-07-31T00:09:16;6.53;;;5.93;;
13868;SDS011;7004;48.206;16.402;2022-07-31T00:11:43;6.67;;;5.67;;
13868;SDS011;7004;48.206;16.402;2022-07-31T00:14:10;6.77;;;5.73;;
13868;SDS011;7004;48.206;16.402;2022-07-31T00:16:37;6.03;;;5.50;;
13868;SDS011;7004;48.206;16.402;2022-07-31T00:19:03;9.97;;;5.70;;
13868;SDS011;7004;48.206;16.402;2022-07-31T00:21:29;6.43;;;5.90;;
13868;SDS011;7004;48.206;16.402;2022-07-31T00:23:55;6.17;;;5.57;;
13868;SDS011;7004;48.206;16.402;2022-07-31T00:26:21;6.10;;;5.40;;
13868;SDS011;7004;48.206;16.402;2022-07-31T00:28:47;7.07;;;4.97;;
13868;SDS011;7004;48.206;16.402;2022-07-31T00:31:13;5.70;;;5.20;;
13868;SDS011;7004;48.206;16.402;2022-07-31T00:33:39;5.73;;;5.23;;
13868;SDS011;7004;48.206;16.402;2022-07-31T00:36:07;5.93;;;5.13;;
13868;SDS011;7004;48.206;16.402;2022-07-31T00:38:33;7.37;;;5.40;;
13868;SDS011;7004;48.206;16.402;2022-07-31T00:40:59;5.70;;;5.10;;
13868;SDS011;7004;48.206;16.402;2022-07-31T00:43:27;7.90;;;5.13;;
13868;SDS011;7004;48.206;16.402;2022-07-31T00:45:53;5.63;;;5.03;;
13868;SDS011;7004;48.206;16.402;2022-07-31T00:48:22;5.73;;;5.23;;
13868;SDS011;7004;48.206;16.402;2022-07-31T00:50:49;6.77;;;5.40;;
13868;SDS011;7004;48.206;16.402;2022-07-31T00:53:15;6.40;;;5.43;;
13868;SDS011;7004;48.206;16.402;2022-07-31T00:55:41;5.70;;;5.10;;
13868;SDS011;7004;48.206;16.402;2022-07-31T00:58:07;6.13;;;5.53;;
13868;SDS011;7004;48.206;16.402;2022-07-31T01:00:33;6.67;;;5.70;;
13868;SDS011;7004;48.206;16.402;2022-07-31T01:03:01;5.37;;;4.87;;
13868;SDS011;7004;48.206;16.402;2022-07-31T01:05:30;6.13;;;5.53;;
13868;SDS011;7004;48.206;16.402;2022-07-31T01:07:59;7.37;;;5.10;;
13868;SDS011;7004;48.206;16.402;2022-07-31T01:10:47;5.90;;;5.33;;
13868;SDS011;7004;48.206;16.402;2022-07-31T01:13:19;6.13;;;5.40;;
13868;SDS011;7004;48.206;16.402;2022-07-31T01:16:02;6.90;;;5.20;;
13868;SDS011;7004;48.206;16.402;2022-07-31T01:18:32;6.30;;;5.33;;
13868;SDS011;7004;48.206;16.402;2022-07-31T01:21:02;6.60;;;5.23;;
13868;SDS011;7004;48.206;16.402;2022-07-31T01:29:20;6.40;;;5.30;;
13868;SDS011;7004;48.206;16.402;2022-07-31T01:31:58;9.67;;;5.70;;
13868;SDS011;7004;48.206;16.402;2022-07-31T01:37:22;9.10;;;5.40;;
13868;SDS011;7004;48.206;16.402;2022-07-31T01:40:33;8.03;;;5.77;;
13868;SDS011;7004;48.206;16.402;2022-07-31T01:43:07;9.03;;;5.70;;
13868;SDS011;7004;48.206;16.402;2022-07-31T01:45:45;5.80;;;5.30;;
13868;SDS011;7004;48.206;16.402;2022-07-31T01:48:17;6.80;;;5.97;;
13868;SDS011;7004;48.206;16.402;2022-07-31T01:50:45;7.67;;;5.50;;
13868;SDS011;7004;48.206;16.402;2022-07-31T01:53:17;7.17;;;5.30;;
13868;SDS011;7004;48.206;16.402;2022-07-31T01:55:47;6.30;;;5.40;;
13868;SDS011;7004;48.206;16.402;2022-07-31T01:58:21;5.80;;;5.13;;
13868;SDS011;7004;48.206;16.402;2022-07-31T02:00:50;5.33;;;4.77;;
13868;SDS011;7004;48.206;16.402;2022-07-31T02:03:21;5.70;;;5.20;;
13868;SDS011;7004;48.206;16.402;2022-07-31T02:05:50;7.47;;;5.53;;
13868;SDS011;7004;48.206;16.402;2022-07-31T02:08:18;8.27;;;4.93;;
13868;SDS011;7004;48.206;16.402;2022-07-31T02:10:47;7.27;;;5.57;;
13868;SDS011;7004;48.206;16.402;2022-07-31T02:13:14;5.77;;;5.27;;
13868;SDS011;7004;48.206;16.402;2022-07-31T02:15:42;6.60;;;5.30;;
13868;SDS011;7004;48.206;16.402;2022-07-31T02:18:09;7.50;;;5.00;;
13868;SDS011;7004;48.206;16.402;2022-07-31T02:20:40;6.67;;;5.03;;
13868;SDS011;7004;48.206;16.402;2022-07-31T02:23:07;6.90;;;5.20;;
13868;SDS011;7004;48.206;16.402;2022-07-31T02:25:34;7.40;;;5.43;;
13868;SDS011;7004;48.206;16.402;2022-07-31T02:28:02;5.70;;;4.97;;
13868;SDS011;7004;48.206;16.402;2022-07-31T02:30:36;5.77;;;5.00;;
13868;SDS011;7004;48.206;16.402;2022-07-31T02:33:25;7.30;;;5.40;;
13868;SDS011;7004;48.206;16.402;2022-07-31T02:35:53;6.33;;;5.73;;
13868;SDS011;7004;48.206;16.402;2022-07-31T02:38:22;6.87;;;5.50;;
13868;SDS011;7004;48.206;16.402;2022-07-31T02:40:58;5.77;;;5.13;;
13868;SDS011;7004;48.206;16.402;2022-07-31T02:43:30;7.00;;;5.50;;
13868;SDS011;7004;48.206;16.402;2022-07-31T02:45:59;7.03;;;5.33;;
13868;SDS011;7004;48.206;16.402;2022-07-31T02:48:25;6.43;;;5.40;;
13868;SDS011;7004;48.206;16.402;2022-07-31T02:50:52;6.23;;;5.47;;
13868;SDS011;7004;48.206;16.402;2022-07-31T02:53:19;8.40;;;5.67;;
13868;SDS011;7004;48.206;16.402;2022-07-31T02:55:46;5.97;;;5.47;;
13868;SDS011;7004;48.206;16.402;2022-07-31T02:58:13;7.27;;;5.40;;
13868;SDS011;7004;48.206;16.402;2022-07-31T03:00:39;7.17;;;5.27;;
13868;SDS011;7004;48.206;16.402;2022-07-31T03:03:06;5.80;;;4.87;;
13868;SDS011;7004;48.206;16.402;2022-07-31T03:05:32;5.87;;;5.20;;
13868;SDS011;7004;48.206;16.402;2022-07-31T03:07:59;6.13;;;5.13;;
13868;SDS011;7004;48.206;16.402;2022-07-31T03:10:26;7.93;;;5.20;;
13868;SDS011;7004;48.206;16.402;2022-07-31T03:12:52;5.93;;;5.33;;
13868;SDS011;7004;48.206;16.402;2022-07-31T03:15:20;8.23;;;5.53;;
13868;SDS011;7004;48.206;16.402;2022-07-31T03:17:49;7.23;;;5.57;;
13868;SDS011;7004;48.206;16.402;2022-07-31T03:20:17;6.57;;;5.43;;
13868;SDS011;7004;48.206;16.402;2022-07-31T03:22:44;7.17;;;5.60;;
13868;SDS011;7004;48.206;16.402;2022-07-31T03:25:11;6.43;;;5.80;;
13868;SDS011;7004;48.206;16.402;2022-07-31T03:27:37;8.10;;;5.83;;
13868;SDS011;7004;48.206;16.402;2022-07-31T03:30:04;7.33;;;5.70;;
13868;SDS011;7004;48.206;16.402;2022-07-31T03:32:31;5.90;;;5.40;;
13868;SDS011;7004;48.206;16.402;2022-07-31T03:35:00;7.93;;;6.10;;
13868;SDS011;7004;48.206;16.402;2022-07-31T03:37:27;11.60;;;6.20;;
13868;SDS011;7004;48.206;16.402;2022-07-31T03:39:53;10.13;;;6.20;;
13868;SDS011;7004;48.206;16.402;2022-07-31T03:42:19;7.80;;;6.30;;
13868;SDS011;7004;48.206;16.402;2022-07-31T03:44:45;7.90;;;6.17;;
13868;SDS011;7004;48.206;16.402;2022-07-31T03:47:13;6.50;;;5.80;;
13868;SDS011;7004;48.206;16.402;2022-07-31T03:49:40;7.00;;;6.30;;
13868;SDS011;7004;48.206;16.402;2022-07-31T03:52:07;6.80;;;6.20;;
13868;SDS011;7004;48.206;16.402;2022-07-31T03:54:33;7.23;;;6.53;;
13868;SDS011;7004;48.206;16.402;2022-07-31T03:56:59;6.93;;;6.27;;
13868;SDS011;7004;48.206;16.402;2022-07-31T03:59:27;6.93;;;6.23;;
13868;SDS011;7004;48.206;16.402;2022-07-31T04:01:54;8.07;;;6.50;;
13868;SDS011;7004;48.206;16.402;2022-07-31T04:04:22;7.43;;;6.03;;
13868;SDS011;7004;48.206;16.402;2022-07-31T04:06:48;8.00;;;6.60;;
13868;SDS011;7004;48.206;16.402;2022-07-31T04:09:14;7.53;;;6.73;;
13868;SDS011;7004;48.206;16.402;2022-07-31T04:11:40;9.17;;;6.03;;
13868;SDS011;7004;48.206;16.402;2022-07-31T04:14:06;8.10;;;5.67;;
13868;SDS011;7004;48.206;16.402;2022-07-31T04:16:32;8.17;;;6.30;;
13868;SDS011;7004;48.206;16.402;2022-07-31T04:18:58;8.50;;;6.70;;
13868;SDS011;7004;48.206;16.402;2022-07-31T04:21:25;7.67;;;6.43;;
13868;SDS011;7004;48.206;16.402;2022-07-31T04:23:51;8.87;;;6.03;;
13868;SDS011;7004;48.206;16.402;2022-07-31T04:26:17;7.07;;;6.37;;
13868;SDS011;7004;48.206;16.402;2022-07-31T04:28:43;6.93;;;6.23;;
13868;SDS011;7004;48.206;16.402;2022-07-31T04:31:10;6.73;;;6.13;;
13868;SDS011;7004;48.206;16.402;2022-07-31T04:33:36;6.57;;;5.83;;
13868;SDS011;7004;48.206;16.402;2022-07-31T04:36:02;8.87;;;5.80;;
13868;SDS011;7004;48.206;16.402;2022-07-31T04:38:29;7.17;;;6.40;;
13868;SDS011;7004;48.206;16.402;2022-07-31T04:40:55;6.47;;;5.90;;
13868;SDS011;7004;48.206;16.402;2022-07-31T04:43:21;6.50;;;5.93;;
13868;SDS011;7004;48.206;16.402;2022-07-31T04:45:47;9.30;;;6.13;;
13868;SDS011;7004;48.206;16.402;2022-07-31T04:48:13;7.77;;;5.90;;
13868;SDS011;7004;48.206;16.402;2022-07-31T04:50:39;6.23;;;5.50;;
13868;SDS011;7004;48.206;16.402;2022-07-31T04:53:05;7.83;;;5.93;;
13868;SDS011;7004;48.206;16.402;2022-07-31T04:55:31;6.47;;;5.80;;
13868;SDS011;7004;48.206;16.402;2022-07-31T04:57:57;11.40;;;6.17;;
13868;SDS011;7004;48.206;16.402;2022-07-31T05:00:23;6.80;;;6.17;;
13868;SDS011;7004;48.206;16.402;2022-07-31T05:02:51;8.30;;;6.23;;
13868;SDS011;7004;48.206;16.402;2022-07-31T05:05:17;8.17;;;6.53;;
13868;SDS011;7004;48.206;16.402;2022-07-31T05:07:43;6.70;;;6.10;;
13868;SDS011;7004;48.206;16.402;2022-07-31T05:10:09;7.63;;;6.80;;
13868;SDS011;7004;48.206;16.402;2022-07-31T05:12:56;9.77;;;6.47;;
13868;SDS011;7004;48.206;16.402;2022-07-31T05:15:22;8.00;;;6.10;;
13868;SDS011;7004;48.206;16.402;2022-07-31T05:17:48;11.13;;;6.77;;
13868;SDS011;7004;48.206;16.402;2022-07-31T05:20:14;7.27;;;6.40;;
13868;SDS011;7004;48.206;16.402;2022-07-31T05:22:40;7.03;;;6.07;;
13868;SDS011;7004;48.206;16.402;2022-07-31T05:25:07;7.17;;;5.80;;
13868;SDS011;7004;48.206;16.402;2022-07-31T05:27:34;7.00;;;6.30;;
13868;SDS011;7004;48.206;16.402;2022-07-31T05:29:59;8.03;;;5.87;;
13868;SDS011;7004;48.206;16.402;2022-07-31T05:32:26;11.53;;;6.10;;
13868;SDS011;7004;48.206;16.402;2022-07-31T05:34:53;8.00;;;6.33;;
13868;SDS011;7004;48.206;16.402;2022-07-31T05:37:18;7.07;;;6.07;;
13868;SDS011;7004;48.206;16.402;2022-07-31T05:39:44;7.00;;;5.57;;
13868;SDS011;7004;48.206;16.402;2022-07-31T05:42:10;6.40;;;5.80;;
13868;SDS011;7004;48.206;16.402;2022-07-31T05:44:37;7.27;;;6.10;;
13868;SDS011;7004;48.206;16.402;2022-07-31T05:47:05;9.10;;;6.50;;
13868;SDS011;7004;48.206;16.402;2022-07-31T05:49:32;6.67;;;5.93;;
13868;SDS011;7004;48.206;16.402;2022-07-31T05:51:58;7.50;;;5.93;;
13868;SDS011;7004;48.206;16.402;2022-07-31T05:54:24;6.77;;;6.00;;
13868;SDS011;7004;48.206;16.402;2022-07-31T05:56:50;7.43;;;6.30;;
13868;SDS011;7004;48.206;16.402;2022-07-31T05:59:16;7.73;;;6.43;;
13868;SDS011;7004;48.206;16.402;2022-07-31T06:01:42;6.70;;;6.10;;
13868;SDS011;7004;48.206;16.402;2022-07-31T06:04:09;7.57;;;5.53;;
13868;SDS011;7004;48.206;16.402;2022-07-31T06:06:35;10.80;;;6.27;;
13868;SDS011;7004;48.206;16.402;2022-07-31T06:09:01;7.67;;;6.03;;
13868;SDS011;7004;48.206;16.402;2022-07-31T06:11:27;8.23;;;5.93;;
13868;SDS011;7004;48.206;16.402;2022-07-31T06:13:53;6.37;;;5.53;;
13868;SDS011;7004;48.206;16.402;2022-07-31T06:16:19;6.33;;;5.73;;
13868;SDS011;7004;48.206;16.402;2022-07-31T06:18:45;6.27;;;5.60;;
13868;SDS011;7004;48.206;16.402;2022-07-31T06:21:11;7.23;;;5.80;;
13868;SDS011;7004;48.206;16.402;2022-07-31T06:23:37;6.30;;;5.80;;
13868;SDS011;7004;48.206;16.402;2022-07-31T06:26:03;6.77;;;5.70;;
13868;SDS011;7004;48.206;16.402;2022-07-31T06:28:29;6.23;;;5.70;;
13868;SDS011;7004;48.206;16.402;2022-07-31T06:30:56;6.83;;;5.93;;
13868;SDS011;7004;48.206;16.402;2022-07-31T06:33:22;6.60;;;6.07;;
13868;SDS011;7004;48.206;16.402;2022-07-31T06:35:48;6.10;;;5.13;;
13868;SDS011;7004;48.206;16.402;2022-07-31T06:38:14;6.13;;;5.53;;
13868;SDS011;7004;48.206;16.402;2022-07-31T06:40:40;8.83;;;5.47;;
13868;SDS011;7004;48.206;16.402;2022-07-31T06:43:06;6.40;;;5.37;;
13868;SDS011;7004;48.206;16.402;2022-07-31T06:45:33;8.03;;;5.90;;
13868;SDS011;7004;48.206;16.402;2022-07-31T06:47:59;6.97;;;5.70;;
13868;SDS011;7004;48.206;16.402;2022-07-31T06:50:25;6.13;;;5.53;;
13868;SDS011;7004;48.206;16.402;2022-07-31T06:52:52;6.17;;;5.57;;
13868;SDS011;7004;48.206;16.402;2022-07-31T06:55:18;7.50;;;5.23;;
13868;SDS011;7004;48.206;16.402;2022-07-31T06:57:44;6.73;;;5.33;;
13868;SDS011;7004;48.206;16.402;2022-07-31T07:00:10;5.50;;;5.00;;
13868;SDS011;7004;48.206;16.402;2022-07-31T07:02:38;6.87;;;5.00;;
13868;SDS011;7004;48.206;16.402;2022-07-31T07:05:04;5.53;;;5.03;;
13868;SDS011;7004;48.206;16.402;2022-07-31T07:07:33;5.43;;;4.90;;
13868;SDS011;7004;48.206;16.402;2022-07-31T07:10:02;5.77;;;5.10;;
13868;SDS011;7004;48.206;16.402;2022-07-31T07:12:30;5.40;;;4.90;;
13868;SDS011;7004;48.206;16.402;2022-07-31T07:14:56;6.83;;;4.73;;
13868;SDS011;7004;48.206;16.402;2022-07-31T07:17:22;6.50;;;4.93;;
13868;SDS011;7004;48.206;16.402;2022-07-31T07:19:48;5.50;;;4.90;;
13868;SDS011;7004;48.206;16.402;2022-07-31T07:22:14;5.40;;;4.60;;
13868;SDS011;7004;48.206;16.402;2022-07-31T07:24:40;5.23;;;4.30;;
13868;SDS011;7004;48.206;16.402;2022-07-31T07:27:07;5.73;;;5.13;;
13868;SDS011;7004;48.206;16.402;2022-07-31T07:29:33;5.73;;;4.50;;
13868;SDS011;7004;48.206;16.402;2022-07-31T07:31:59;5.20;;;4.47;;
13868;SDS011;7004;48.206;16.402;2022-07-31T07:34:26;5.50;;;5.00;;
13868;SDS011;7004;48.206;16.402;2022-07-31T07:36:53;5.10;;;4.60;;
13868;SDS011;7004;48.206;16.402;2022-07-31T07:39:20;5.30;;;4.77;;
13868;SDS011;7004;48.206;16.402;2022-07-31T07:41:47;6.63;;;4.70;;
13868;SDS011;7004;48.206;16.402;2022-07-31T07:44:13;6.70;;;4.93;;
13868;SDS011;7004;48.206;16.402;2022-07-31T07:46:39;4.33;;;4.03;;
13868;SDS011;7004;48.206;16.402;2022-07-31T07:49:05;6.67;;;4.70;;
13868;SDS011;7004;48.206;16.402;2022-07-31T07:51:31;4.90;;;4.40;;
13868;SDS011;7004;48.206;16.402;2022-07-31T07:53:57;5.03;;;4.60;;
13868;SDS011;7004;48.206;16.402;2022-07-31T07:56:23;4.57;;;4.17;;
13868;SDS011;7004;48.206;16.402;2022-07-31T07:58:49;5.27;;;4.77;;
13868;SDS011;7004;48.206;16.402;2022-07-31T08:01:15;8.13;;;4.70;;
13868;SDS011;7004;48.206;16.402;2022-07-31T08:03:41;6.17;;;4.87;;
13868;SDS011;7004;48.206;16.402;2022-07-31T08:06:07;5.10;;;4.60;;
13868;SDS011;7004;48.206;16.402;2022-07-31T08:08:34;6.93;;;4.73;;
13868;SDS011;7004;48.206;16.402;2022-07-31T08:11:00;6.13;;;5.30;;
13868;SDS011;7004;48.206;16.402;2022-07-31T08:13:28;8.00;;;5.33;;
13868;SDS011;7004;48.206;16.402;2022-07-31T08:15:55;6.37;;;4.70;;
13868;SDS011;7004;48.206;16.402;2022-07-31T08:18:21;5.20;;;4.80;;
13868;SDS011;7004;48.206;16.402;2022-07-31T08:20:47;10.60;;;4.97;;
13868;SDS011;7004;48.206;16.402;2022-07-31T08:23:13;5.27;;;4.87;;
13868;SDS011;7004;48.206;16.402;2022-07-31T08:25:39;8.17;;;5.40;;
13868;SDS011;7004;48.206;16.402;2022-07-31T08:28:06;5.50;;;4.80;;
13868;SDS011;7004;48.206;16.402;2022-07-31T08:30:32;9.07;;;5.10;;
13868;SDS011;7004;48.206;16.402;2022-07-31T08:32:58;6.10;;;4.77;;
13868;SDS011;7004;48.206;16.402;2022-07-31T08:35:24;5.73;;;4.53;;
13868;SDS011;7004;48.206;16.402;2022-07-31T08:37:50;5.20;;;4.70;;
13868;SDS011;7004;48.206;16.402;2022-07-31T08:40:17;5.07;;;4.57;;
13868;SDS011;7004;48.206;16.402;2022-07-31T08:42:44;6.37;;;4.67;;
13868;SDS011;7004;48.206;16.402;2022-07-31T08:45:11;6.97;;;4.60;;
13868;SDS011;7004;48.206;16.402;2022-07-31T08:47:39;7.73;;;4.67;;
13868;SDS011;7004;48.206;16.402;2022-07-31T08:50:11;5.63;;;4.40;;
13868;SDS011;7004;48.206;16.402;2022-07-31T08:52:42;5.20;;;4.60;;
13868;SDS011;7004;48.206;16.402;2022-07-31T08:55:10;4.80;;;4.37;;
13868;SDS011;7004;48.206;16.402;2022-07-31T08:57:39;6.93;;;4.47;;
13868;SDS011;7004;48.206;16.402;2022-07-31T09:00:06;5.43;;;4.57;;
13868;SDS011;7004;48.206;16.402;2022-07-31T09:02:40;6.57;;;4.67;;
13868;SDS011;7004;48.206;16.402;2022-07-31T09:05:06;6.00;;;4.00;;
13868;SDS011;7004;48.206;16.402;2022-07-31T09:07:33;6.83;;;4.63;;
13868;SDS011;7004;48.206;16.402;2022-07-31T09:09:59;6.97;;;4.40;;
13868;SDS011;7004;48.206;16.402;2022-07-31T09:12:31;4.63;;;4.23;;
13868;SDS011;7004;48.206;16.402;2022-07-31T09:14:57;5.60;;;4.50;;
13868;SDS011;7004;48.206;16.402;2022-07-31T09:17:31;4.50;;;4.10;;
13868;SDS011;7004;48.206;16.402;2022-07-31T09:19:59;4.67;;;4.27;;
13868;SDS011;7004;48.206;16.402;2022-07-31T09:22:28;5.53;;;4.30;;
13868;SDS011;7004;48.206;16.402;2022-07-31T09:25:05;6.30;;;4.20;;
13868;SDS011;7004;48.206;16.402;2022-07-31T09:27:36;4.00;;;3.60;;
13868;SDS011;7004;48.206;16.402;2022-07-31T09:30:03;5.20;;;4.10;;
13868;SDS011;7004;48.206;16.402;2022-07-31T09:32:31;4.03;;;3.63;;
13868;SDS011;7004;48.206;16.402;2022-07-31T09:35:10;4.10;;;3.80;;
13868;SDS011;7004;48.206;16.402;2022-07-31T09:37:38;4.43;;;3.67;;
13868;SDS011;7004;48.206;16.402;2022-07-31T09:40:05;4.80;;;3.60;;
13868;SDS011;7004;48.206;16.402;2022-07-31T09:42:34;6.87;;;3.40;;
13868;SDS011;7004;48.206;16.402;2022-07-31T09:45:04;5.07;;;3.00;;
13868;SDS011;7004;48.206;16.402;2022-07-31T09:47:45;3.90;;;3.23;;
13868;SDS011;7004;48.206;16.402;2022-07-31T09:50:12;3.90;;;3.50;;
13868;SDS011;7004;48.206;16.402;2022-07-31T09:52:39;3.90;;;3.50;;
13868;SDS011;7004;48.206;16.402;2022-07-31T09:55:09;3.90;;;3.60;;
13868;SDS011;7004;48.206;16.402;2022-07-31T09:57:49;6.90;;;3.50;;
13868;SDS011;7004;48.206;16.402;2022-07-31T10:00:22;4.67;;;3.33;;
13868;SDS011;7004;48.206;16.402;2022-07-31T10:02:50;6.20;;;3.80;;
13868;SDS011;7004;48.206;16.402;2022-07-31T10:05:21;4.77;;;3.50;;
13868;SDS011;7004;48.206;16.402;2022-07-31T10:07:50;3.43;;;3.13;;
13868;SDS011;7004;48.206;16.402;2022-07-31T10:10:17;5.33;;;3.20;;
13868;SDS011;7004;48.206;16.402;2022-07-31T10:12:47;3.67;;;3.47;;
13868;SDS011;7004;48.206;16.402;2022-07-31T10:15:18;5.00;;;3.40;;
13868;SDS011;7004;48.206;16.402;2022-07-31T10:17:46;3.33;;;3.00;;
13868;SDS011;7004;48.206;16.402;2022-07-31T10:20:16;4.17;;;3.27;;
13868;SDS011;7004;48.206;16.402;2022-07-31T10:22:48;5.30;;;3.40;;
13868;SDS011;7004;48.206;16.402;2022-07-31T10:25:27;4.50;;;3.53;;
13868;SDS011;7004;48.206;16.402;2022-07-31T10:27:54;3.90;;;3.50;;
13868;SDS011;7004;48.206;16.402;2022-07-31T10:30:22;6.00;;;3.57;;
13868;SDS011;7004;48.206;16.402;2022-07-31T10:32:49;6.30;;;3.60;;
13868;SDS011;7004;48.206;16.402;2022-07-31T10:35:16;4.00;;;3.60;;
13868;SDS011;7004;48.206;16.402;2022-07-31T10:37:55;3.70;;;3.33;;
13868;SDS011;7004;48.206;16.402;2022-07-31T10:40:41;5.60;;;3.37;;
13868;SDS011;7004;48.206;16.402;2022-07-31T10:43:51;5.10;;;3.30;;
13868;SDS011;7004;48.206;16.402;2022-07-31T10:46:27;3.80;;;3.50;;
13868;SDS011;7004;48.206;16.402;2022-07-31T10:48:56;3.80;;;3.20;;
13868;SDS011;7004;48.206;16.402;2022-07-31T10:51:22;3.60;;;3.30;;
13868;SDS011;7004;48.206;16.402;2022-07-31T10:56:43;3.63;;;3.33;;
13868;SDS011;7004;48.206;16.402;2022-07-31T10:59:11;5.33;;;3.50;;
13868;SDS011;7004;48.206;16.402;2022-07-31T11:01:44;5.40;;;3.40;;
13868;SDS011;7004;48.206;16.402;2022-07-31T11:04:28;4.93;;;3.47;;
13868;SDS011;7004;48.206;16.402;2022-07-31T11:06:56;4.30;;;2.97;;
13868;SDS011;7004;48.206;16.402;2022-07-31T11:09:25;3.83;;;3.40;;
13868;SDS011;7004;48.206;16.402;2022-07-31T11:11:53;5.17;;;3.23;;
13868;SDS011;7004;48.206;16.402;2022-07-31T11:14:38;3.80;;;3.50;;
13868;SDS011;7004;48.206;16.402;2022-07-31T11:17:04;6.13;;;3.20;;
13868;SDS011;7004;48.206;16.402;2022-07-31T11:19:38;3.83;;;3.40;;
13868;SDS011;7004;48.206;16.402;2022-07-31T11:22:13;3.77;;;3.37;;
13868;SDS011;7004;48.206;16.402;2022-07-31T11:24:51;3.83;;;3.50;;
13868;SDS011;7004;48.206;16.402;2022-07-31T11:27:32;9.73;;;3.40;;
13868;SDS011;7004;48.206;16.402;2022-07-31T11:30:05;3.90;;;3.60;;
13868;SDS011;7004;48.206;16.402;2022-07-31T11:32:33;4.70;;;3.63;;
13868;SDS011;7004;48.206;16.402;2022-07-31T11:34:59;6.10;;;3.50;;
13868;SDS011;7004;48.206;16.402;2022-07-31T11:37:29;3.70;;;3.40;;
13868;SDS011;7004;48.206;16.402;2022-07-31T11:39:57;4.40;;;3.40;;
13868;SDS011;7004;48.206;16.402;2022-07-31T11:42:24;4.13;;;3.40;;
13868;SDS011;7004;48.206;16.402;2022-07-31T11:45:03;5.30;;;4.50;;
13868;SDS011;7004;48.206;16.402;2022-07-31T11:47:40;4.10;;;3.80;;
13868;SDS011;7004;48.206;16.402;2022-07-31T11:50:10;4.50;;;4.10;;
13868;SDS011;7004;48.206;16.402;2022-07-31T11:52:38;5.27;;;3.70;;
13868;SDS011;7004;48.206;16.402;2022-07-31T11:55:09;6.17;;;3.67;;
13868;SDS011;7004;48.206;16.402;2022-07-31T11:57:39;4.23;;;3.40;;
13868;SDS011;7004;48.206;16.402;2022-07-31T12:02:38;4.67;;;3.60;;
13868;SDS011;7004;48.206;16.402;2022-07-31T12:05:08;3.67;;;3.33;;
13868;SDS011;7004;48.206;16.402;2022-07-31T12:07:40;3.73;;;3.37;;
13868;SDS011;7004;48.206;16.402;2022-07-31T12:10:09;4.87;;;3.50;;
13868;SDS011;7004;48.206;16.402;2022-07-31T12:12:37;5.00;;;3.60;;
13868;SDS011;7004;48.206;16.402;2022-07-31T12:15:24;6.07;;;3.50;;
13868;SDS011;7004;48.206;16.402;2022-07-31T12:17:59;4.90;;;4.10;;
13868;SDS011;7004;48.206;16.402;2022-07-31T12:20:28;5.03;;;3.53;;
13868;SDS011;7004;48.206;16.402;2022-07-31T12:22:56;3.90;;;3.30;;
13868;SDS011;7004;48.206;16.402;2022-07-31T12:25:26;5.30;;;3.60;;
13868;SDS011;7004;48.206;16.402;2022-07-31T12:28:03;4.87;;;3.63;;
13868;SDS011;7004;48.206;16.402;2022-07-31T12:30:31;5.20;;;3.70;;
13868;SDS011;7004;48.206;16.402;2022-07-31T12:33:05;3.80;;;3.50;;
13868;SDS011;7004;48.206;16.402;2022-07-31T12:35:36;5.27;;;3.40;;
13868;SDS011;7004;48.206;16.402;2022-07-31T12:38:07;4.17;;;3.70;;
13868;SDS011;7004;48.206;16.402;2022-07-31T12:40:35;4.63;;;3.43;;
13868;SDS011;7004;48.206;16.402;2022-07-31T12:43:02;3.67;;;3.10;;
13868;SDS011;7004;48.206;16.402;2022-07-31T12:48:05;3.60;;;3.30;;
13868;SDS011;7004;48.206;16.402;2022-07-31T12:50:32;3.77;;;3.43;;
13868;SDS011;7004;48.206;16.402;2022-07-31T12:53:00;4.70;;;3.40;;
13868;SDS011;7004;48.206;16.402;2022-07-31T12:55:30;5.17;;;3.43;;
13868;SDS011;7004;48.206;16.402;2022-07-31T12:57:57;3.90;;;3.57;;
13868;SDS011;7004;48.206;16.402;2022-07-31T13:00:24;4.73;;;3.90;;
13868;SDS011;7004;48.206;16.402;2022-07-31T13:02:53;4.00;;;3.57;;
13868;SDS011;7004;48.206;16.402;2022-07-31T13:05:21;5.47;;;4.00;;
13868;SDS011;7004;48.206;16.402;2022-07-31T13:07:48;4.40;;;3.73;;
13868;SDS011;7004;48.206;16.402;2022-07-31T13:10:15;3.80;;;3.50;;
13868;SDS011;7004;48.206;16.402;2022-07-31T13:12:42;5.57;;;3.33;;
13868;SDS011;7004;48.206;16.402;2022-07-31T13:15:09;3.57;;;3.27;;
13868;SDS011;7004;48.206;16.402;2022-07-31T13:17:35;4.63;;;3.40;;
13868;SDS011;7004;48.206;16.402;2022-07-31T13:20:02;4.37;;;3.23;;
13868;SDS011;7004;48.206;16.402;2022-07-31T13:22:29;4.93;;;3.53;;
13868;SDS011;7004;48.206;16.402;2022-07-31T13:24:56;4.33;;;3.30;;
13868;SDS011;7004;48.206;16.402;2022-07-31T13:27:22;6.57;;;3.77;;
13868;SDS011;7004;48.206;16.402;2022-07-31T13:29:48;6.63;;;3.37;;
13868;SDS011;7004;48.206;16.402;2022-07-31T13:32:15;4.80;;;3.80;;
13868;SDS011;7004;48.206;16.402;2022-07-31T13:34:41;4.00;;;3.60;;
13868;SDS011;7004;48.206;16.402;2022-07-31T13:37:07;5.90;;;4.00;;
13868;SDS011;7004;48.206;16.402;2022-07-31T13:39:33;3.47;;;3.17;;
13868;SDS011;7004;48.206;16.402;2022-07-31T13:42:00;3.60;;;3.30;;
13868;SDS011;7004;48.206;16.402;2022-07-31T13:44:26;4.13;;;3.17;;
13868;SDS011;7004;48.206;16.402;2022-07-31T13:46:53;3.60;;;3.30;;
13868;SDS011;7004;48.206;16.402;2022-07-31T13:49:19;3.67;;;3.10;;
13868;SDS011;7004;48.206;16.402;2022-07-31T13:51:45;3.50;;;3.20;;
13868;SDS011;7004;48.206;16.402;2022-07-31T13:54:11;4.13;;;3.63;;
13868;SDS011;7004;48.206;16.402;2022-07-31T13:56:38;4.87;;;3.80;;
13868;SDS011;7004;48.206;16.402;2022-07-31T13:59:06;3.50;;;3.20;;
13868;SDS011;7004;48.206;16.402;2022-07-31T14:01:32;5.20;;;3.60;;
13868;SDS011;7004;48.206;16.402;2022-07-31T14:03:58;7.47;;;3.40;;
13868;SDS011;7004;48.206;16.402;2022-07-31T14:06:24;6.43;;;3.50;;
13868;SDS011;7004;48.206;16.402;2022-07-31T14:08:50;6.67;;;3.37;;
13868;SDS011;7004;48.206;16.402;2022-07-31T14:11:18;4.87;;;3.70;;
13868;SDS011;7004;48.206;16.402;2022-07-31T14:13:44;4.70;;;3.47;;
13868;SDS011;7004;48.206;16.402;2022-07-31T14:16:10;5.67;;;3.50;;
13868;SDS011;7004;48.206;16.402;2022-07-31T14:18:36;4.87;;;3.37;;
13868;SDS011;7004;48.206;16.402;2022-07-31T14:21:06;5.47;;;3.50;;
13868;SDS011;7004;48.206;16.402;2022-07-31T14:23:33;3.73;;;3.43;;
13868;SDS011;7004;48.206;16.402;2022-07-31T14:25:59;3.40;;;3.20;;
13868;SDS011;7004;48.206;16.402;2022-07-31T14:28:27;3.90;;;3.43;;
13868;SDS011;7004;48.206;16.402;2022-07-31T14:30:53;4.00;;;3.57;;
13868;SDS011;7004;48.206;16.402;2022-07-31T14:33:19;7.53;;;3.67;;
13868;SDS011;7004;48.206;16.402;2022-07-31T14:35:45;5.80;;;3.37;;
13868;SDS011;7004;48.206;16.402;2022-07-31T14:38:11;5.87;;;3.03;;
13868;SDS011;7004;48.206;16.402;2022-07-31T14:40:38;4.50;;;3.73;;
13868;SDS011;7004;48.206;16.402;2022-07-31T14:43:05;3.53;;;3.23;;
13868;SDS011;7004;48.206;16.402;2022-07-31T14:45:35;5.13;;;3.30;;
13868;SDS011;7004;48.206;16.402;2022-07-31T14:48:01;3.90;;;3.40;;
13868;SDS011;7004;48.206;16.402;2022-07-31T14:50:28;3.57;;;3.27;;
13868;SDS011;7004;48.206;16.402;2022-07-31T14:52:54;3.83;;;3.30;;
13868;SDS011;7004;48.206;16.402;2022-07-31T14:55:21;3.73;;;3.20;;
13868;SDS011;7004;48.206;16.402;2022-07-31T14:57:49;3.90;;;3.50;;
13868;SDS011;7004;48.206;16.402;2022-07-31T15:00:16;5.37;;;3.40;;
13868;SDS011;7004;48.206;16.402;2022-07-31T15:02:43;4.00;;;3.43;;
13868;SDS011;7004;48.206;16.402;2022-07-31T15:05:10;3.80;;;3.30;;
13868;SDS011;7004;48.206;16.402;2022-07-31T15:07:36;5.00;;;3.53;;
13868;SDS011;7004;48.206;16.402;2022-07-31T15:10:03;4.20;;;3.73;;
13868;SDS011;7004;48.206;16.402;2022-07-31T15:12:31;6.97;;;3.40;;